sensor_id;sensor_type;location;lat;lon;timestamp;pressure;altitude;pressure_sealevel;temperature
66113;BMP280;52893;52.870;5.822;2023-10-13T00:01:47;100663.94;;;17.22
66113;BMP280;52893;52.870;5.822;2023-10-13T00:04:17;100655.66;;;17.22
66113;BMP280;52893;52.870;5.822;2023-10-13T00:06:48;100668.66;;;17.25
66113;BMP280;52893;52.870;5.822;2023-10-13T00:09:15;100674.19;;;17.25
66113;BMP280;52893;52.870;5.822;2023-10-13T00:11:46;100673.00;;;17.26
66113;BMP280;52893;52.870;5.822;2023-10-13T00:14:13;100678.97;;;17.28
66113;BMP280;52893;52.870;5.822;2023-10-13T00:16:46;100674.66;;;17.30
66113;BMP280;52893;52.870;5.822;2023-10-13T00:19:28;100674.66;;;17.34
66113;BMP280;52893;52.870;5.822;2023-10-13T00:22:04;100662.81;;;17.30
66113;BMP280;52893;52.870;5.822;2023-10-13T00:24:35;100668.78;;;17.32
66113;BMP280;52893;52.870;5.822;2023-10-13T00:27:11;100669.59;;;17.36
66113;BMP280;52893;52.870;5.822;2023-10-13T00:29:54;100668.09;;;17.42
66113;BMP280;52893;52.870;5.822;2023-10-13T00:32:41;100665.66;;;17.37
66113;BMP280;52893;52.870;5.822;2023-10-13T00:35:10;100633.16;;;17.20
66113;BMP280;52893;52.870;5.822;2023-10-13T00:37:51;100662.47;;;17.35
66113;BMP280;52893;52.870;5.822;2023-10-13T00:40:19;100643.81;;;17.25
66113;BMP280;52893;52.870;5.822;2023-10-13T00:43:11;100649.03;;;17.30
66113;BMP280;52893;52.870;5.822;2023-10-13T00:45:57;100653.03;;;17.36
66113;BMP280;52893;52.870;5.822;2023-10-13T00:48:32;100653.03;;;17.36
66113;BMP280;52893;52.870;5.822;2023-10-13T00:51:01;100655.78;;;17.36
66113;BMP280;52893;52.870;5.822;2023-10-13T00:53:32;100660.53;;;17.39
66113;BMP280;52893;52.870;5.822;2023-10-13T00:56:00;100653.06;;;17.39
66113;BMP280;52893;52.870;5.822;2023-10-13T00:58:34;100644.75;;;17.32
66113;BMP280;52893;52.870;5.822;2023-10-13T01:01:05;100645.91;;;17.31
66113;BMP280;52893;52.870;5.822;2023-10-13T01:03:45;100615.06;;;17.26
66113;BMP280;52893;52.870;5.822;2023-10-13T01:06:18;100631.78;;;17.40
66113;BMP280;52893;52.870;5.822;2023-10-13T01:08:46;100647.59;;;17.43
66113;BMP280;52893;52.870;5.822;2023-10-13T01:11:18;100619.97;;;17.39
66113;BMP280;52893;52.870;5.822;2023-10-13T01:13:46;100620.75;;;17.40
66113;BMP280;52893;52.870;5.822;2023-10-13T01:16:19;100617.97;;;17.36
66113;BMP280;52893;52.870;5.822;2023-10-13T01:18:49;100610.84;;;17.35
66113;BMP280;52893;52.870;5.822;2023-10-13T01:21:16;100605.31;;;17.35
66113;BMP280;52893;52.870;5.822;2023-10-13T01:23:47;100600.97;;;17.31
66113;BMP280;52893;52.870;5.822;2023-10-13T01:26:16;100596.59;;;17.30
66113;BMP280;52893;52.870;5.822;2023-10-13T01:28:48;100604.13;;;17.33
66113;BMP280;52893;52.870;5.822;2023-10-13T01:31:16;100599.00;;;17.35
66113;BMP280;52893;52.870;5.822;2023-10-13T01:33:56;100593.09;;;17.33
66113;BMP280;52893;52.870;5.822;2023-10-13T01:36:26;100587.13;;;17.27
66113;BMP280;52893;52.870;5.822;2023-10-13T01:38:55;100584.41;;;17.31
66113;BMP280;52893;52.870;5.822;2023-10-13T01:41:24;100587.16;;;17.31
66113;BMP280;52893;52.870;5.822;2023-10-13T01:43:50;100579.69;;;17.31
66113;BMP280;52893;52.870;5.822;2023-10-13T01:46:17;100567.41;;;17.29
66113;BMP280;52893;52.870;5.822;2023-10-13T01:48:47;100573.00;;;17.36
66113;BMP280;52893;52.870;5.822;2023-10-13T01:51:15;100545.28;;;17.18
66113;BMP280;52893;52.870;5.822;2023-10-13T01:53:41;100562.34;;;17.31
66113;BMP280;52893;52.870;5.822;2023-10-13T01:56:11;100557.63;;;17.35
66113;BMP280;52893;52.870;5.822;2023-10-13T01:58:38;100543.41;;;17.33
66113;BMP280;52893;52.870;5.822;2023-10-13T02:01:08;100534.28;;;17.22
66113;BMP280;52893;52.870;5.822;2023-10-13T02:03:35;100546.59;;;17.35
66113;BMP280;52893;52.870;5.822;2023-10-13T02:06:07;100543.81;;;17.31
66113;BMP280;52893;52.870;5.822;2023-10-13T02:08:41;100539.09;;;17.35
66113;BMP280;52893;52.870;5.822;2023-10-13T02:11:11;100535.53;;;17.35
66113;BMP280;52893;52.870;5.822;2023-10-13T02:13:38;100537.56;;;17.38
66113;BMP280;52893;52.870;5.822;2023-10-13T02:16:14;100528.44;;;17.34
66113;BMP280;52893;52.870;5.822;2023-10-13T02:18:44;100526.03;;;17.29
66113;BMP280;52893;52.870;5.822;2023-10-13T02:21:17;100521.66;;;17.24
66113;BMP280;52893;52.870;5.822;2023-10-13T02:23:44;100518.88;;;17.21
66113;BMP280;52893;52.870;5.822;2023-10-13T02:26:13;100521.25;;;17.19
66113;BMP280;52893;52.870;5.822;2023-10-13T02:28:58;100506.22;;;17.16
66113;BMP280;52893;52.870;5.822;2023-10-13T02:31:26;100501.88;;;17.15
66113;BMP280;52893;52.870;5.822;2023-10-13T02:33:54;100495.56;;;17.15
66113;BMP280;52893;52.870;5.822;2023-10-13T02:36:21;100490.47;;;17.13
66113;BMP280;52893;52.870;5.822;2023-10-13T02:39:03;100490.03;;;17.15
66113;BMP280;52893;52.870;5.822;2023-10-13T02:41:35;100482.97;;;17.14
66113;BMP280;52893;52.870;5.822;2023-10-13T02:44:05;100475.44;;;17.11
66113;BMP280;52893;52.870;5.822;2023-10-13T02:46:34;100469.09;;;17.06
66113;BMP280;52893;52.870;5.822;2023-10-13T02:49:03;100472.69;;;17.14
66113;BMP280;52893;52.870;5.822;2023-10-13T02:51:36;100457.72;;;17.12
66113;BMP280;52893;52.870;5.822;2023-10-13T02:54:04;100458.06;;;17.06
66113;BMP280;52893;52.870;5.822;2023-10-13T02:56:38;100454.97;;;17.12
66113;BMP280;52893;52.870;5.822;2023-10-13T02:59:13;100449.81;;;17.10
66113;BMP280;52893;52.870;5.822;2023-10-13T03:01:41;100436.00;;;17.06
66113;BMP280;52893;52.870;5.822;2023-10-13T03:04:07;100445.91;;;17.15
66113;BMP280;52893;52.870;5.822;2023-10-13T03:06:35;100441.56;;;17.10
66113;BMP280;52893;52.870;5.822;2023-10-13T03:09:07;100439.59;;;17.14
66113;BMP280;52893;52.870;5.822;2023-10-13T03:11:42;100433.28;;;17.10
66113;BMP280;52893;52.870;5.822;2023-10-13T03:14:09;100408.72;;;16.94
66113;BMP280;52893;52.870;5.822;2023-10-13T03:16:50;100424.22;;;17.10
66113;BMP280;52893;52.870;5.822;2023-10-13T03:19:17;100423.84;;;17.11
66113;BMP280;52893;52.870;5.822;2023-10-13T03:21:45;100410.06;;;17.11
66113;BMP280;52893;52.870;5.822;2023-10-13T03:24:21;100406.09;;;17.09
66113;BMP280;52893;52.870;5.822;2023-10-13T03:27:00;100399.38;;;17.10
66113;BMP280;52893;52.870;5.822;2023-10-13T03:29:35;100399.78;;;17.08
66113;BMP280;52893;52.870;5.822;2023-10-13T03:32:02;100386.38;;;17.06
66113;BMP280;52893;52.870;5.822;2023-10-13T03:34:37;100383.25;;;17.15
66113;BMP280;52893;52.870;5.822;2023-10-13T03:37:16;100377.41;;;17.20
66113;BMP280;52893;52.870;5.822;2023-10-13T03:39:44;100369.91;;;17.17
66113;BMP280;52893;52.870;5.822;2023-10-13T03:42:13;100358.50;;;17.19
66113;BMP280;52893;52.870;5.822;2023-10-13T03:44:44;100359.59;;;17.14
66113;BMP280;52893;52.870;5.822;2023-10-13T03:47:12;100350.16;;;17.15
66113;BMP280;52893;52.870;5.822;2023-10-13T03:49:53;100345.81;;;17.14
66113;BMP280;52893;52.870;5.822;2023-10-13T03:52:40;100342.31;;;17.17
66113;BMP280;52893;52.870;5.822;2023-10-13T03:55:08;100349.81;;;17.20
66113;BMP280;52893;52.870;5.822;2023-10-13T03:57:45;100338.00;;;17.20
66113;BMP280;52893;52.870;5.822;2023-10-13T04:00:16;100326.16;;;17.19
66113;BMP280;52893;52.870;5.822;2023-10-13T04:02:50;100325.81;;;17.21
66113;BMP280;52893;52.870;5.822;2023-10-13T04:05:32;100302.56;;;17.22
66113;BMP280;52893;52.870;5.822;2023-10-13T04:08:06;100295.09;;;17.22
66113;BMP280;52893;52.870;5.822;2023-10-13T04:10:52;100291.53;;;17.22
66113;BMP280;52893;52.870;5.822;2023-10-13T04:13:47;100291.91;;;17.20
66113;BMP280;52893;52.870;5.822;2023-10-13T04:16:30;100286.78;;;17.19
66113;BMP280;52893;52.870;5.822;2023-10-13T04:19:16;100287.94;;;17.18
66113;BMP280;52893;52.870;5.822;2023-10-13T04:21:50;100290.72;;;17.18
66113;BMP280;52893;52.870;5.822;2023-10-13T04:24:26;100268.22;;;17.16
66113;BMP280;52893;52.870;5.822;2023-10-13T04:27:07;100259.94;;;17.16
66113;BMP280;52893;52.870;5.822;2023-10-13T04:30:08;100250.53;;;17.13
66113;BMP280;52893;52.870;5.822;2023-10-13T04:32:50;100265.47;;;17.12
66113;BMP280;52893;52.870;5.822;2023-10-13T04:35:31;100239.84;;;17.12
66113;BMP280;52893;52.870;5.822;2023-10-13T04:38:02;100231.16;;;17.10
66113;BMP280;52893;52.870;5.822;2023-10-13T04:40:40;100213.41;;;17.03
66113;BMP280;52893;52.870;5.822;2023-10-13T04:43:24;100217.38;;;17.10
66113;BMP280;52893;52.870;5.822;2023-10-13T04:46:00;100208.72;;;17.08
66113;BMP280;52893;52.870;5.822;2023-10-13T04:48:40;100203.94;;;17.04
66113;BMP280;52893;52.870;5.822;2023-10-13T04:51:13;100203.56;;;17.06
66113;BMP280;52893;52.870;5.822;2023-10-13T04:54:15;100194.13;;;17.07
66113;BMP280;52893;52.870;5.822;2023-10-13T04:56:52;100188.19;;;17.01
66113;BMP280;52893;52.870;5.822;2023-10-13T04:59:36;100176.78;;;17.03
66113;BMP280;52893;52.870;5.822;2023-10-13T05:02:25;100161.78;;;17.00
66113;BMP280;52893;52.870;5.822;2023-10-13T05:05:10;100163.34;;;16.94
66113;BMP280;52893;52.870;5.822;2023-10-13T05:07:48;100157.06;;;16.97
66113;BMP280;52893;52.870;5.822;2023-10-13T05:10:34;100155.47;;;16.96
66113;BMP280;52893;52.870;5.822;2023-10-13T05:13:19;100140.06;;;16.88
66113;BMP280;52893;52.870;5.822;2023-10-13T05:16:04;100145.25;;;16.93
66113;BMP280;52893;52.870;5.822;2023-10-13T05:18:51;100147.16;;;16.89
66113;BMP280;52893;52.870;5.822;2023-10-13T05:21:35;100138.50;;;16.91
66113;BMP280;52893;52.870;5.822;2023-10-13T05:24:20;100118.38;;;16.83
66113;BMP280;52893;52.870;5.822;2023-10-13T05:27:05;100124.69;;;16.80
66113;BMP280;52893;52.870;5.822;2023-10-13T05:30:09;100124.69;;;16.80
66113;BMP280;52893;52.870;5.822;2023-10-13T05:33:11;100111.69;;;16.77
66113;BMP280;52893;52.870;5.822;2023-10-13T05:35:57;100111.28;;;16.75
66113;BMP280;52893;52.870;5.822;2023-10-13T05:38:39;100105.31;;;16.70
66113;BMP280;52893;52.870;5.822;2023-10-13T05:41:24;100112.44;;;16.71
66113;BMP280;52893;52.870;5.822;2023-10-13T05:44:08;100104.16;;;16.67
66113;BMP280;52893;52.870;5.822;2023-10-13T05:46:53;100098.63;;;16.67
66113;BMP280;52893;52.870;5.822;2023-10-13T05:49:59;100104.19;;;16.74
66113;BMP280;52893;52.870;5.822;2023-10-13T05:52:40;100086.84;;;16.74
66113;BMP280;52893;52.870;5.822;2023-10-13T05:55:25;100082.13;;;16.74
66113;BMP280;52893;52.870;5.822;2023-10-13T05:58:10;100069.13;;;16.71
66113;BMP280;52893;52.870;5.822;2023-10-13T06:00:56;100082.50;;;16.69
66113;BMP280;52893;52.870;5.822;2023-10-13T06:03:41;100085.28;;;16.73
66113;BMP280;52893;52.870;5.822;2023-10-13T06:06:26;100067.88;;;16.58
66113;BMP280;52893;52.870;5.822;2023-10-13T06:09:12;100079.34;;;16.67
66113;BMP280;52893;52.870;5.822;2023-10-13T06:11:57;100079.72;;;16.69
66113;BMP280;52893;52.870;5.822;2023-10-13T06:14:45;100074.66;;;16.75
66113;BMP280;52893;52.870;5.822;2023-10-13T06:17:29;100081.34;;;16.77
66113;BMP280;52893;52.870;5.822;2023-10-13T06:20:14;100081.34;;;16.77
66113;BMP280;52893;52.870;5.822;2023-10-13T06:22:59;100069.56;;;16.80
66113;BMP280;52893;52.870;5.822;2023-10-13T06:25:51;100068.78;;;16.76
66113;BMP280;52893;52.870;5.822;2023-10-13T06:28:36;100053.44;;;16.89
66113;BMP280;52893;52.870;5.822;2023-10-13T06:31:12;100078.69;;;16.98
66113;BMP280;52893;52.870;5.822;2023-10-13T06:33:47;100070.41;;;16.95
66113;BMP280;52893;52.870;5.822;2023-10-13T06:36:14;100076.75;;;17.02
66113;BMP280;52893;52.870;5.822;2023-10-13T06:38:43;100046.78;;;16.97
66113;BMP280;52893;52.870;5.822;2023-10-13T06:41:12;100060.97;;;17.06
66113;BMP280;52893;52.870;5.822;2023-10-13T06:43:45;100055.06;;;17.01
66113;BMP280;52893;52.870;5.822;2023-10-13T06:46:26;100033.38;;;16.99
66113;BMP280;52893;52.870;5.822;2023-10-13T06:48:55;100064.91;;;16.98
66113;BMP280;52893;52.870;5.822;2023-10-13T06:51:25;100055.03;;;16.97
66113;BMP280;52893;52.870;5.822;2023-10-13T06:53:57;100065.28;;;16.93
66113;BMP280;52893;52.870;5.822;2023-10-13T06:56:25;100042.00;;;16.87
66113;BMP280;52893;52.870;5.822;2023-10-13T06:58:54;100053.47;;;16.93
66113;BMP280;52893;52.870;5.822;2023-10-13T07:01:26;100063.72;;;16.92
66113;BMP280;52893;52.870;5.822;2023-10-13T07:03:53;100043.59;;;16.85
66113;BMP280;52893;52.870;5.822;2023-10-13T07:06:27;100055.81;;;16.91
66113;BMP280;52893;52.870;5.822;2023-10-13T07:08:54;100050.66;;;16.86
66113;BMP280;52893;52.870;5.822;2023-10-13T07:11:25;100052.25;;;16.87
66113;BMP280;52893;52.870;5.822;2023-10-13T07:14:00;100027.84;;;16.85
66113;BMP280;52893;52.870;5.822;2023-10-13T07:16:42;100040.44;;;16.90
66113;BMP280;52893;52.870;5.822;2023-10-13T07:19:12;100025.88;;;16.96
66113;BMP280;52893;52.870;5.822;2023-10-13T07:21:44;100020.78;;;16.95
66113;BMP280;52893;52.870;5.822;2023-10-13T07:24:12;100016.03;;;16.99
66113;BMP280;52893;52.870;5.822;2023-10-13T07:26:41;100013.69;;;16.97
66113;BMP280;52893;52.870;5.822;2023-10-13T07:29:12;100041.25;;;16.97
66113;BMP280;52893;52.870;5.822;2023-10-13T07:31:40;100018.84;;;17.02
66113;BMP280;52893;52.870;5.822;2023-10-13T07:34:11;100026.69;;;17.00
66113;BMP280;52893;52.870;5.822;2023-10-13T07:36:54;100031.84;;;17.02
66113;BMP280;52893;52.870;5.822;2023-10-13T07:39:25;100041.25;;;17.04
66113;BMP280;52893;52.870;5.822;2023-10-13T07:41:55;100021.19;;;17.08
66113;BMP280;52893;52.870;5.822;2023-10-13T07:44:30;100001.88;;;17.04
66113;BMP280;52893;52.870;5.822;2023-10-13T07:47:00;99994.03;;;17.13
66113;BMP280;52893;52.870;5.822;2023-10-13T07:49:29;99997.19;;;17.12
66113;BMP280;52893;52.870;5.822;2023-10-13T07:52:05;99985.78;;;17.13
66113;BMP280;52893;52.870;5.822;2023-10-13T07:54:50;99979.47;;;17.13
66113;BMP280;52893;52.870;5.822;2023-10-13T07:57:27;99979.81;;;17.15
66113;BMP280;52893;52.870;5.822;2023-10-13T07:59:56;99975.09;;;17.15
66113;BMP280;52893;52.870;5.822;2023-10-13T08:02:39;99980.63;;;17.15
66113;BMP280;52893;52.870;5.822;2023-10-13T08:05:17;99963.28;;;17.15
66113;BMP280;52893;52.870;5.822;2023-10-13T08:07:51;99964.47;;;17.14
66113;BMP280;52893;52.870;5.822;2023-10-13T08:10:19;99969.19;;;17.17
66113;BMP280;52893;52.870;5.822;2023-10-13T08:12:52;99950.31;;;17.12
66113;BMP280;52893;52.870;5.822;2023-10-13T08:15:20;99956.22;;;17.21
66113;BMP280;52893;52.870;5.822;2023-10-13T08:17:58;99949.53;;;17.18
66113;BMP280;52893;52.870;5.822;2023-10-13T08:20:30;99934.13;;;17.10
66113;BMP280;52893;52.870;5.822;2023-10-13T08:23:04;99942.00;;;17.26
66113;BMP280;52893;52.870;5.822;2023-10-13T08:25:40;99948.34;;;17.23
66113;BMP280;52893;52.870;5.822;2023-10-13T08:28:28;99929.41;;;17.21
66113;BMP280;52893;52.870;5.822;2023-10-13T08:31:20;99931.78;;;17.33
66113;BMP280;52893;52.870;5.822;2023-10-13T08:33:48;99909.69;;;17.37
66113;BMP280;52893;52.870;5.822;2023-10-13T08:36:15;99910.88;;;17.39
66113;BMP280;52893;52.870;5.822;2023-10-13T08:38:54;99904.19;;;17.47
66113;BMP280;52893;52.870;5.822;2023-10-13T08:41:22;99895.09;;;17.47
66113;BMP280;52893;52.870;5.822;2023-10-13T08:44:04;99905.72;;;17.59
66113;BMP280;52893;52.870;5.822;2023-10-13T08:46:34;99893.47;;;17.64
66113;BMP280;52893;52.870;5.822;2023-10-13T08:49:30;99888.72;;;17.71
66113;BMP280;52893;52.870;5.822;2023-10-13T08:51:59;99881.22;;;17.82
66113;BMP280;52893;52.870;5.822;2023-10-13T08:54:53;99891.44;;;17.85
66113;BMP280;52893;52.870;5.822;2023-10-13T08:57:39;99881.16;;;17.93
66113;BMP280;52893;52.870;5.822;2023-10-13T09:00:17;99879.19;;;17.93
66113;BMP280;52893;52.870;5.822;2023-10-13T09:02:54;99887.00;;;18.09
66113;BMP280;52893;52.870;5.822;2023-10-13T09:05:49;99869.22;;;18.17
66113;BMP280;52893;52.870;5.822;2023-10-13T09:08:27;99892.41;;;18.27
66113;BMP280;52893;52.870;5.822;2023-10-13T09:11:02;99892.00;;;18.35
66113;BMP280;52893;52.870;5.822;2023-10-13T09:13:37;99874.63;;;18.35
66113;BMP280;52893;52.870;5.822;2023-10-13T09:16:12;99902.97;;;18.46
66113;BMP280;52893;52.870;5.822;2023-10-13T09:18:43;99891.50;;;18.51
66113;BMP280;52893;52.870;5.822;2023-10-13T09:21:16;99881.59;;;18.53
66113;BMP280;52893;52.870;5.822;2023-10-13T09:23:55;99902.81;;;18.67
66113;BMP280;52893;52.870;5.822;2023-10-13T09:26:49;99889.03;;;18.63
66113;BMP280;52893;52.870;5.822;2023-10-13T09:29:19;99907.91;;;18.79
66113;BMP280;52893;52.870;5.822;2023-10-13T09:31:46;99926.38;;;18.86
66113;BMP280;52893;52.870;5.822;2023-10-13T09:34:21;99912.97;;;18.84
66113;BMP280;52893;52.870;5.822;2023-10-13T09:36:49;99907.41;;;18.88
66113;BMP280;52893;52.870;5.822;2023-10-13T09:39:25;99905.81;;;18.90
66113;BMP280;52893;52.870;5.822;2023-10-13T09:42:09;99901.44;;;18.96
66113;BMP280;52893;52.870;5.822;2023-10-13T09:44:37;99883.75;;;18.83
66113;BMP280;52893;52.870;5.822;2023-10-13T09:47:10;99910.13;;;18.98
66113;BMP280;52893;52.870;5.822;2023-10-13T09:49:44;99912.81;;;19.05
66113;BMP280;52893;52.870;5.822;2023-10-13T09:52:15;99905.63;;;19.11
66113;BMP280;52893;52.870;5.822;2023-10-13T09:54:56;99909.94;;;19.19
66113;BMP280;52893;52.870;5.822;2023-10-13T09:57:33;99887.34;;;19.25
66113;BMP280;52893;52.870;5.822;2023-10-13T10:00:09;99889.72;;;19.22
66113;BMP280;52893;52.870;5.822;2023-10-13T10:02:55;99883.38;;;19.22
66113;BMP280;52893;52.870;5.822;2023-10-13T10:05:30;99896.72;;;19.31
66113;BMP280;52893;52.870;5.822;2023-10-13T10:08:00;99895.56;;;19.32
66113;BMP280;52893;52.870;5.822;2023-10-13T10:10:44;99886.91;;;19.26
66113;BMP280;52893;52.870;5.822;2023-10-13T10:13:24;99894.34;;;19.36
66113;BMP280;52893;52.870;5.822;2023-10-13T10:15:59;99896.53;;;19.52
66113;BMP280;52893;52.870;5.822;2023-10-13T10:18:28;99894.81;;;19.61
66113;BMP280;52893;52.870;5.822;2023-10-13T10:21:03;99889.03;;;19.83
66113;BMP280;52893;52.870;5.822;2023-10-13T10:23:35;99902.78;;;19.93
66113;BMP280;52893;52.870;5.822;2023-10-13T10:26:12;99892.41;;;19.97
66113;BMP280;52893;52.870;5.822;2023-10-13T10:28:43;99899.88;;;20.00
66113;BMP280;52893;52.870;5.822;2023-10-13T10:31:11;99879.84;;;20.19
66113;BMP280;52893;52.870;5.822;2023-10-13T10:33:41;99852.00;;;20.00
66113;BMP280;52893;52.870;5.822;2023-10-13T10:36:09;99896.25;;;20.33
66113;BMP280;52893;52.870;5.822;2023-10-13T10:38:52;99905.63;;;20.43
66113;BMP280;52893;52.870;5.822;2023-10-13T10:41:25;99895.78;;;20.39
66113;BMP280;52893;52.870;5.822;2023-10-13T10:43:57;99911.63;;;20.42
66113;BMP280;52893;52.870;5.822;2023-10-13T10:46:29;99897.38;;;20.40
66113;BMP280;52893;52.870;5.822;2023-10-13T10:49:06;99894.59;;;20.40
66113;BMP280;52893;52.870;5.822;2023-10-13T10:51:36;99890.63;;;20.41
66113;BMP280;52893;52.870;5.822;2023-10-13T10:54:17;99904.13;;;20.39
66113;BMP280;52893;52.870;5.822;2023-10-13T10:56:46;99879.63;;;20.33
66113;BMP280;52893;52.870;5.822;2023-10-13T10:59:20;99876.13;;;20.29
66113;BMP280;52893;52.870;5.822;2023-10-13T11:01:51;99889.91;;;20.37
66113;BMP280;52893;52.870;5.822;2023-10-13T11:04:18;99887.94;;;20.33
66113;BMP280;52893;52.870;5.822;2023-10-13T11:06:52;99903.31;;;20.42
66113;BMP280;52893;52.870;5.822;2023-10-13T11:09:24;99901.25;;;20.46
66113;BMP280;52893;52.870;5.822;2023-10-13T11:12:09;99888.28;;;20.39
66113;BMP280;52893;52.870;5.822;2023-10-13T11:14:43;99878.59;;;20.24
66113;BMP280;52893;52.870;5.822;2023-10-13T11:17:19;99872.47;;;20.09
66113;BMP280;52893;52.870;5.822;2023-10-13T11:19:50;99856.41;;;19.97
66113;BMP280;52893;52.870;5.822;2023-10-13T11:22:19;99860.44;;;19.93
66113;BMP280;52893;52.870;5.822;2023-10-13T11:25:08;99845.78;;;19.92
66113;BMP280;52893;52.870;5.822;2023-10-13T11:27:37;99856.41;;;19.97
66113;BMP280;52893;52.870;5.822;2023-10-13T11:30:23;99858.72;;;20.02
66113;BMP280;52893;52.870;5.822;2023-10-13T11:33:08;99841.63;;;20.07
66113;BMP280;52893;52.870;5.822;2023-10-13T11:35:37;99842.63;;;20.20
66113;BMP280;52893;52.870;5.822;2023-10-13T11:38:23;99853.59;;;20.27
66113;BMP280;52893;52.870;5.822;2023-10-13T11:40:55;99844.03;;;20.32
66113;BMP280;52893;52.870;5.822;2023-10-13T11:43:42;99823.53;;;20.26
66113;BMP280;52893;52.870;5.822;2023-10-13T11:46:34;99844.56;;;20.23
66113;BMP280;52893;52.870;5.822;2023-10-13T11:49:19;99833.00;;;20.28
66113;BMP280;52893;52.870;5.822;2023-10-13T11:51:57;99835.41;;;20.26
66113;BMP280;52893;52.870;5.822;2023-10-13T11:54:37;99829.44;;;20.28
66113;BMP280;52893;52.870;5.822;2023-10-13T11:57:08;99819.16;;;20.28
66113;BMP280;52893;52.870;5.822;2023-10-13T11:59:35;99813.34;;;20.19
66113;BMP280;52893;52.870;5.822;2023-10-13T12:02:12;99795.63;;;20.13
66113;BMP280;52893;52.870;5.822;2023-10-13T12:04:57;99810.31;;;20.10
66113;BMP280;52893;52.870;5.822;2023-10-13T12:07:25;99792.25;;;20.02
66113;BMP280;52893;52.870;5.822;2023-10-13T12:10:09;99813.63;;;20.02
66113;BMP280;52893;52.870;5.822;2023-10-13T12:12:42;99817.22;;;19.99
66113;BMP280;52893;52.870;5.822;2023-10-13T12:15:12;99827.88;;;20.00
66113;BMP280;52893;52.870;5.822;2023-10-13T12:17:53;99809.56;;;20.06
66113;BMP280;52893;52.870;5.822;2023-10-13T12:20:23;99827.31;;;20.12
66113;BMP280;52893;52.870;5.822;2023-10-13T12:22:59;99826.09;;;20.13
66113;BMP280;52893;52.870;5.822;2023-10-13T12:25:37;99829.31;;;20.08
66113;BMP280;52893;52.870;5.822;2023-10-13T12:28:22;99810.97;;;19.91
66113;BMP280;52893;52.870;5.822;2023-10-13T12:30:52;99806.84;;;19.76
66113;BMP280;52893;52.870;5.822;2023-10-13T12:33:21;99793.56;;;19.64
66113;BMP280;52893;52.870;5.822;2023-10-13T12:35:59;99799.13;;;19.64
66113;BMP280;52893;52.870;5.822;2023-10-13T12:38:46;99812.72;;;19.51
66113;BMP280;52893;52.870;5.822;2023-10-13T12:41:42;99794.72;;;19.36
66113;BMP280;52893;52.870;5.822;2023-10-13T12:44:26;99781.50;;;19.13
66113;BMP280;52893;52.870;5.822;2023-10-13T12:47:11;99760.09;;;18.84
66113;BMP280;52893;52.870;5.822;2023-10-13T12:49:57;99765.31;;;18.78
66113;BMP280;52893;52.870;5.822;2023-10-13T12:52:38;99742.50;;;18.67
66113;BMP280;52893;52.870;5.822;2023-10-13T12:55:06;99744.09;;;18.64
66113;BMP280;52893;52.870;5.822;2023-10-13T12:57:35;99725.59;;;18.58
66113;BMP280;52893;52.870;5.822;2023-10-13T13:00:11;99722.13;;;18.50
66113;BMP280;52893;52.870;5.822;2023-10-13T13:02:51;99721.34;;;18.50
66113;BMP280;52893;52.870;5.822;2023-10-13T13:05:23;99709.19;;;18.40
66113;BMP280;52893;52.870;5.822;2023-10-13T13:07:54;99710.44;;;18.36
66113;BMP280;52893;52.870;5.822;2023-10-13T13:10:22;99660.03;;;18.21
66113;BMP280;52893;52.870;5.822;2023-10-13T13:13:02;99692.31;;;18.31
66113;BMP280;52893;52.870;5.822;2023-10-13T13:15:30;99708.84;;;18.35
66113;BMP280;52893;52.870;5.822;2023-10-13T13:17:57;99683.22;;;18.31
66113;BMP280;52893;52.870;5.822;2023-10-13T13:20:37;99661.84;;;18.38
66113;BMP280;52893;52.870;5.822;2023-10-13T13:23:10;99674.88;;;18.38
66113;BMP280;52893;52.870;5.822;2023-10-13T13:25:38;99674.09;;;18.37
66113;BMP280;52893;52.870;5.822;2023-10-13T13:28:09;99675.25;;;18.43
66113;BMP280;52893;52.870;5.822;2023-10-13T13:30:37;99699.31;;;18.43
66113;BMP280;52893;52.870;5.822;2023-10-13T13:33:04;99668.63;;;18.34
66113;BMP280;52893;52.870;5.822;2023-10-13T13:35:39;99692.59;;;18.44
66113;BMP280;52893;52.870;5.822;2023-10-13T13:38:09;99703.97;;;18.49
66113;BMP280;52893;52.870;5.822;2023-10-13T13:40:48;99674.81;;;18.45
66113;BMP280;52893;52.870;5.822;2023-10-13T13:43:16;99677.13;;;18.50
66113;BMP280;52893;52.870;5.822;2023-10-13T13:45:58;99652.66;;;18.52
66113;BMP280;52893;52.870;5.822;2023-10-13T13:48:30;99660.50;;;18.57
66113;BMP280;52893;52.870;5.822;2023-10-13T13:51:03;99642.28;;;18.59
66113;BMP280;52893;52.870;5.822;2023-10-13T13:53:32;99676.06;;;18.74
66113;BMP280;52893;52.870;5.822;2023-10-13T13:56:01;99677.63;;;18.79
66113;BMP280;52893;52.870;5.822;2023-10-13T13:58:29;99664.56;;;18.83
66113;BMP280;52893;52.870;5.822;2023-10-13T14:01:00;99680.72;;;18.84
66113;BMP280;52893;52.870;5.822;2023-10-13T14:03:39;99676.84;;;18.78
66113;BMP280;52893;52.870;5.822;2023-10-13T14:06:12;99682.66;;;18.87
66113;BMP280;52893;52.870;5.822;2023-10-13T14:08:50;99673.53;;;18.90
66113;BMP280;52893;52.870;5.822;2023-10-13T14:11:21;99685.72;;;18.96
66113;BMP280;52893;52.870;5.822;2023-10-13T14:13:48;99669.50;;;18.98
66113;BMP280;52893;52.870;5.822;2023-10-13T14:16:18;99680.06;;;19.03
66113;BMP280;52893;52.870;5.822;2023-10-13T14:18:46;99679.78;;;18.94
66113;BMP280;52893;52.870;5.822;2023-10-13T14:21:16;99694.78;;;18.97
66113;BMP280;52893;52.870;5.822;2023-10-13T14:23:45;99673.41;;;19.01
66113;BMP280;52893;52.870;5.822;2023-10-13T14:26:13;99659.16;;;19.02
66113;BMP280;52893;52.870;5.822;2023-10-13T14:28:41;99666.25;;;19.03
66113;BMP280;52893;52.870;5.822;2023-10-13T14:31:18;99693.78;;;19.14
66113;BMP280;52893;52.870;5.822;2023-10-13T14:33:46;99706.28;;;19.26
66113;BMP280;52893;52.870;5.822;2023-10-13T14:36:13;99719.34;;;19.25
66113;BMP280;52893;52.870;5.822;2023-10-13T14:38:47;99730.38;;;19.29
66113;BMP280;52893;52.870;5.822;2023-10-13T14:41:16;99718.84;;;19.34
66113;BMP280;52893;52.870;5.822;2023-10-13T14:43:44;99719.31;;;19.29
66113;BMP280;52893;52.870;5.822;2023-10-13T14:46:14;99693.66;;;19.21
66113;BMP280;52893;52.870;5.822;2023-10-13T14:48:42;99713.09;;;19.17